createdAt,value
2019-02-08T00:01:42.265Z,17.37
2019-02-08T00:04:11.592Z,22.23
2019-02-08T00:06:40.950Z,21.37
2019-02-08T00:09:10.815Z,21.47
2019-02-08T00:11:40.125Z,16.17
2019-02-08T00:14:09.839Z,18.50
2019-02-08T00:16:39.174Z,14.00
2019-02-08T00:19:08.642Z,13.73
2019-02-08T00:21:38.059Z,14.10
2019-02-08T00:24:08.395Z,16.87
2019-02-08T00:26:39.181Z,11.73
2019-02-08T00:29:09.944Z,8.90
2019-02-08T00:31:39.323Z,7.47
2019-02-08T00:34:09.630Z,12.67
2019-02-08T00:36:38.952Z,11.00
2019-02-08T00:39:11.823Z,13.57
2019-02-08T00:41:41.358Z,12.70
2019-02-08T00:44:10.794Z,12.67
2019-02-08T00:46:40.130Z,11.83
2019-02-08T00:49:09.447Z,15.43
2019-02-08T00:51:38.786Z,17.97
2019-02-08T00:54:08.300Z,15.20
2019-02-08T00:56:37.662Z,12.67
2019-02-08T00:59:07.269Z,12.37
2019-02-08T01:01:36.589Z,9.17
2019-02-08T01:04:07.720Z,11.63
2019-02-08T01:06:37.065Z,14.13
2019-02-08T01:09:09.629Z,13.83
2019-02-08T01:11:38.941Z,11.97
2019-02-08T01:14:08.540Z,11.20
2019-02-08T01:16:39.669Z,11.30
2019-02-08T01:19:08.982Z,14.10
2019-02-08T01:21:38.327Z,12.60
2019-02-08T01:24:07.693Z,17.90
2019-02-08T01:26:37.035Z,14.30
2019-02-08T01:29:07.705Z,11.30
2019-02-08T01:31:37.056Z,16.13
2019-02-08T01:34:06.657Z,9.90
2019-02-08T01:36:36.004Z,13.27
2019-02-08T01:39:08.049Z,12.37
2019-02-08T01:41:37.376Z,11.03
2019-02-08T01:44:07.200Z,17.20
2019-02-08T01:46:36.575Z,10.93
2019-02-08T01:49:08.899Z,20.73
2019-02-08T01:51:38.208Z,13.93
2019-02-08T01:54:07.528Z,10.60
2019-02-08T01:56:36.841Z,9.87
2019-02-08T01:59:08.423Z,7.83
2019-02-08T02:01:37.736Z,15.23
2019-02-08T02:04:07.096Z,16.63
2019-02-08T02:06:36.397Z,8.40
2019-02-08T02:09:09.117Z,10.17
2019-02-08T02:11:38.430Z,10.40
2019-02-08T02:14:07.890Z,10.80
2019-02-08T02:16:37.212Z,10.57
2019-02-08T02:19:06.669Z,6.23
2019-02-08T02:21:36.013Z,6.63
2019-02-08T02:24:05.396Z,5.07
2019-02-08T02:26:34.743Z,7.57
2019-02-08T02:29:05.888Z,6.93
2019-02-08T02:31:35.726Z,8.20
2019-02-08T02:34:05.159Z,9.10
2019-02-08T02:36:34.511Z,6.30
2019-02-08T02:39:05.328Z,11.00
2019-02-08T02:41:34.682Z,6.43
2019-02-08T02:44:03.993Z,9.07
2019-02-08T02:46:33.359Z,11.13
2019-02-08T02:49:02.667Z,14.13
2019-02-08T02:51:31.984Z,11.63
2019-02-08T02:54:04.958Z,8.43
2019-02-08T02:56:32.386Z,10.63
2019-02-08T02:59:02.864Z,11.03
2019-02-08T03:01:32.209Z,11.53
2019-02-08T03:04:01.565Z,10.10
2019-02-08T03:06:30.910Z,11.20
2019-02-08T03:09:00.240Z,8.60
2019-02-08T03:11:30.280Z,12.60
2019-02-08T03:13:59.644Z,8.10
2019-02-08T03:16:28.984Z,8.97
2019-02-08T03:18:58.295Z,12.27
2019-02-08T03:21:27.632Z,9.40
2019-02-08T03:23:57.018Z,12.07
2019-02-08T03:26:26.367Z,11.70
2019-02-08T03:28:55.714Z,8.03
2019-02-08T03:31:25.033Z,3.83
2019-02-08T03:33:54.370Z,10.97
2019-02-08T03:36:23.700Z,8.30
2019-02-08T03:38:53.017Z,5.40
2019-02-08T03:41:23.468Z,7.37
2019-02-08T03:43:52.783Z,8.23
2019-02-08T03:46:22.130Z,7.50
2019-02-08T03:48:52.908Z,6.87
2019-02-08T03:51:22.231Z,7.07
2019-02-08T03:53:51.529Z,9.73
2019-02-08T03:56:20.863Z,12.47
2019-02-08T03:58:50.191Z,10.10
2019-02-08T04:01:20.839Z,10.80
2019-02-08T04:03:50.722Z,9.23
2019-02-08T04:06:20.074Z,11.50
2019-02-08T04:08:49.392Z,17.30
2019-02-08T04:11:18.752Z,14.00
2019-02-08T04:13:48.073Z,17.63
2019-02-08T04:16:17.395Z,13.67
2019-02-08T04:18:46.727Z,18.07
2019-02-08T04:21:16.037Z,10.30
2019-02-08T04:23:45.420Z,11.30
2019-02-08T04:26:14.734Z,10.67
2019-02-08T04:28:45.083Z,8.07
2019-02-08T04:31:14.459Z,10.50
2019-02-08T04:33:43.779Z,8.93
2019-02-08T04:36:13.086Z,6.40
2019-02-08T04:38:42.425Z,9.57
2019-02-08T04:41:11.727Z,7.50
2019-02-08T04:43:41.074Z,11.33
2019-02-08T04:46:10.385Z,5.73
2019-02-08T04:48:39.730Z,13.07
2019-02-08T04:51:09.061Z,10.53
2019-02-08T04:53:38.382Z,6.63
2019-02-08T04:56:07.747Z,6.57
2019-02-08T04:58:37.054Z,6.40
2019-02-08T05:01:06.359Z,5.33
2019-02-08T05:03:35.730Z,11.93
2019-02-08T05:06:05.169Z,6.77
2019-02-08T05:08:34.502Z,5.80
2019-02-08T05:11:16.147Z,7.53
2019-02-08T05:13:46.529Z,6.50
2019-02-08T05:16:15.852Z,7.23
2019-02-08T05:18:47.215Z,6.43
2019-02-08T05:21:16.525Z,8.30
2019-02-08T05:23:45.948Z,8.27
2019-02-08T05:26:15.271Z,7.73
2019-02-08T05:28:44.583Z,7.80
2019-02-08T05:31:13.934Z,10.33
2019-02-08T05:33:43.241Z,9.57
2019-02-08T05:36:12.615Z,12.37
2019-02-08T05:38:41.946Z,9.43
2019-02-08T05:41:11.281Z,14.70
2019-02-08T05:43:40.987Z,13.27
2019-02-08T05:46:10.315Z,11.57
2019-02-08T05:48:39.650Z,14.47
2019-02-08T05:51:08.996Z,10.53
2019-02-08T05:53:38.317Z,15.90
2019-02-08T05:56:07.677Z,15.37
2019-02-08T05:58:36.990Z,20.53
2019-02-08T06:01:06.311Z,16.67
2019-02-08T06:03:35.670Z,16.20
2019-02-08T06:06:05.187Z,16.50
2019-02-08T06:08:34.523Z,20.20
2019-02-08T06:11:03.868Z,17.73
2019-02-08T06:13:33.282Z,15.27
2019-02-08T06:16:02.604Z,19.23
2019-02-08T06:18:31.930Z,20.87
2019-02-08T06:21:01.241Z,21.50
2019-02-08T06:23:30.577Z,26.33
2019-02-08T06:25:59.989Z,23.70
2019-02-08T06:28:29.307Z,23.33
2019-02-08T06:30:58.644Z,24.53
2019-02-08T06:33:27.946Z,22.40
2019-02-08T06:35:57.359Z,21.40
2019-02-08T06:38:26.690Z,25.87
2019-02-08T06:40:56.027Z,26.07
2019-02-08T06:43:25.367Z,23.50
2019-02-08T06:45:54.703Z,23.43
2019-02-08T06:48:24.034Z,26.33
2019-02-08T06:50:53.349Z,20.77
2019-02-08T06:53:22.720Z,21.03
2019-02-08T06:55:53.919Z,21.63
2019-02-08T06:58:28.837Z,19.47
2019-02-08T07:01:15.881Z,22.50
2019-02-08T07:04:06.931Z,27.93
2019-02-08T07:07:07.483Z,18.93
2019-02-08T07:09:55.732Z,24.10
2019-02-08T07:12:43.981Z,29.03
2019-02-08T07:15:47.405Z,26.93
2019-02-08T07:18:51.013Z,32.37
2019-02-08T07:21:45.107Z,19.83
2019-02-08T07:24:21.963Z,23.20
2019-02-08T07:27:15.216Z,24.97
2019-02-08T07:29:51.533Z,23.70
2019-02-08T07:32:48.986Z,25.67
2019-02-08T07:35:43.926Z,25.53
2019-02-08T07:38:38.284Z,22.13
2019-02-08T07:41:31.863Z,26.80
2019-02-08T07:44:26.683Z,27.67
2019-02-08T07:47:19.715Z,19.70
2019-02-08T07:49:56.450Z,23.43
2019-02-08T07:52:57.589Z,25.63
2019-02-08T07:55:43.066Z,20.33
2019-02-08T07:58:22.683Z,18.13
2019-02-08T08:01:10.403Z,22.97
2019-02-08T08:04:01.397Z,21.40
2019-02-08T08:06:50.325Z,23.33
2019-02-08T08:09:43.239Z,23.13
2019-02-08T08:12:31.509Z,19.20
2019-02-08T08:15:18.732Z,24.70
2019-02-08T08:21:03.171Z,27.20
2019-02-08T08:23:48.115Z,21.03
2019-02-08T08:26:38.515Z,28.37
2019-02-08T08:29:39.241Z,22.03
2019-02-08T08:32:17.783Z,25.40
2019-02-08T08:35:25.150Z,26.03
2019-02-08T08:38:34.465Z,22.97
2019-02-08T08:41:47.534Z,32.13
2019-02-08T08:44:51.897Z,23.53
2019-02-08T08:47:57.728Z,19.57
2019-02-08T08:51:17.566Z,25.47
2019-02-08T08:54:26.402Z,27.23
2019-02-08T08:57:35.102Z,25.47
2019-02-08T09:00:39.440Z,19.00
2019-02-08T09:03:32.895Z,26.33
2019-02-08T09:06:45.975Z,24.23
2019-02-08T09:09:54.527Z,19.43
2019-02-08T09:12:33.764Z,23.53
2019-02-08T09:15:33.677Z,26.87
2019-02-08T09:18:51.142Z,24.07
2019-02-08T09:22:02.935Z,26.70
2019-02-08T09:25:13.608Z,22.87
2019-02-08T09:28:39.726Z,18.27
2019-02-08T09:31:54.865Z,26.90
2019-02-08T09:35:08.377Z,19.67
2019-02-08T09:38:27.722Z,22.80
2019-02-08T09:41:31.015Z,20.17
2019-02-08T09:44:29.699Z,22.27
2019-02-08T09:48:00.627Z,14.30
2019-02-08T09:51:13.609Z,20.23
2019-02-08T09:54:15.757Z,12.73
2019-02-08T09:57:21.574Z,18.37
2019-02-08T10:00:35.662Z,12.57
2019-02-08T10:04:00.969Z,17.10
2019-02-08T10:07:17.536Z,19.13
2019-02-08T10:10:36.771Z,15.80
2019-02-08T10:13:53.470Z,11.60
2019-02-08T10:17:18.791Z,13.33
2019-02-08T10:20:27.564Z,10.37
2019-02-08T10:23:43.921Z,14.17
2019-02-08T10:26:56.861Z,14.00
2019-02-08T10:30:10.017Z,19.03
2019-02-08T10:33:25.829Z,18.97
2019-02-08T10:36:28.433Z,9.70
2019-02-08T10:39:35.062Z,27.13
2019-02-08T10:42:35.273Z,23.80
2019-02-08T10:45:40.139Z,25.60
2019-02-08T10:48:46.684Z,20.93
2019-02-08T10:52:10.741Z,28.90
2019-02-08T10:55:12.317Z,38.37
2019-02-08T10:58:22.088Z,29.33
2019-02-08T11:01:42.182Z,25.47
2019-02-08T11:04:49.747Z,28.33
2019-02-08T11:08:07.785Z,21.93
2019-02-08T11:11:32.091Z,34.97
2019-02-08T11:14:44.750Z,25.83
2019-02-08T11:17:57.120Z,21.03
2019-02-08T11:20:26.484Z,20.27
2019-02-08T11:22:55.846Z,22.93
2019-02-08T11:25:25.299Z,24.80
2019-02-08T11:27:54.675Z,36.80
2019-02-08T11:30:23.613Z,29.83
2019-02-08T11:32:52.968Z,39.63
2019-02-08T11:35:23.435Z,33.60
2019-02-08T11:37:52.792Z,36.47
2019-02-08T11:40:26.274Z,24.83
2019-02-08T11:42:55.657Z,30.27
2019-02-08T11:45:25.005Z,27.97
2019-02-08T11:47:54.391Z,23.60
2019-02-08T11:50:23.844Z,23.37
2019-02-08T11:52:53.190Z,31.43
2019-02-08T11:55:22.559Z,42.33
2019-02-08T11:57:51.957Z,28.97
2019-02-08T12:00:30.450Z,24.17
2019-02-08T12:02:59.828Z,18.33
2019-02-08T12:05:29.186Z,23.50
2019-02-08T12:07:58.707Z,26.57
2019-02-08T12:10:28.083Z,28.10
2019-02-08T12:12:57.399Z,25.00
2019-02-08T12:15:27.075Z,25.57
2019-02-08T12:17:56.406Z,22.17
2019-02-08T12:20:25.746Z,25.47
2019-02-08T12:22:55.092Z,42.10
2019-02-08T12:25:25.678Z,40.13
2019-02-08T12:27:54.996Z,34.20
2019-02-08T12:30:31.062Z,46.17
2019-02-08T12:33:00.427Z,45.13
2019-02-08T12:35:29.905Z,41.53
2019-02-08T12:37:59.232Z,48.37
2019-02-08T12:40:28.623Z,33.07
2019-02-08T12:42:58.057Z,28.37
2019-02-08T12:45:27.400Z,30.23
2019-02-08T12:47:57.883Z,29.37
2019-02-08T12:50:27.248Z,40.77
2019-02-08T12:52:56.779Z,35.67
2019-02-08T12:55:26.443Z,28.33
2019-02-08T12:57:55.820Z,44.27
2019-02-08T13:00:25.458Z,24.17
2019-02-08T13:02:54.927Z,36.30
2019-02-08T13:05:24.378Z,31.07
2019-02-08T13:07:53.927Z,40.40
2019-02-08T13:10:23.823Z,60.90
2019-02-08T13:12:53.961Z,44.07
2019-02-08T13:15:23.385Z,56.03
2019-02-08T13:17:52.763Z,38.33
2019-02-08T13:20:22.457Z,34.97
2019-02-08T13:22:51.864Z,34.73
2019-02-08T13:25:21.298Z,34.00
2019-02-08T13:27:51.775Z,43.53
2019-02-08T13:30:23.729Z,47.10
2019-02-08T13:32:53.180Z,34.70
2019-02-08T13:35:22.628Z,44.20
2019-02-08T13:37:52.229Z,52.30
2019-02-08T13:40:22.848Z,30.90
2019-02-08T13:42:52.190Z,51.57
2019-02-08T13:45:21.741Z,50.97
2019-02-08T13:47:51.140Z,44.57
2019-02-08T13:50:22.893Z,44.57
2019-02-08T13:52:52.261Z,34.80
2019-02-08T13:55:22.943Z,33.13
2019-02-08T13:57:52.472Z,46.90
2019-02-08T14:00:25.023Z,26.83
2019-02-08T14:02:54.506Z,31.20
2019-02-08T14:05:24.037Z,24.40
2019-02-08T14:07:53.492Z,35.30
2019-02-08T14:10:23.249Z,51.03
2019-02-08T14:12:52.879Z,39.53
2019-02-08T14:15:23.159Z,41.57
2019-02-08T14:17:52.617Z,31.03
2019-02-08T14:20:23.525Z,32.37
2019-02-08T14:23:14.202Z,37.80
2019-02-08T14:25:43.558Z,44.47
2019-02-08T14:28:12.953Z,58.93
2019-02-08T14:30:43.029Z,53.33
2019-02-08T14:33:12.494Z,43.77
2019-02-08T14:35:43.298Z,48.43
2019-02-08T14:38:17.146Z,27.30
2019-02-08T14:40:46.927Z,33.13
2019-02-08T14:43:16.290Z,31.37
2019-02-08T14:45:45.673Z,38.20
2019-02-08T14:48:15.045Z,30.17
2019-02-08T14:50:44.362Z,44.50
2019-02-08T14:53:13.726Z,35.33
2019-02-08T14:55:43.097Z,36.27
2019-02-08T14:58:12.545Z,42.80
2019-02-08T15:00:41.883Z,39.00
2019-02-08T15:03:11.252Z,44.43
2019-02-08T15:05:40.701Z,37.47
2019-02-08T15:08:10.033Z,33.37
2019-02-08T15:10:44.881Z,41.33
2019-02-08T15:13:14.259Z,48.97
2019-02-08T15:15:43.605Z,34.13
2019-02-08T15:18:12.977Z,35.10
2019-02-08T15:20:42.309Z,33.90
2019-02-08T15:23:11.773Z,38.30
2019-02-08T15:25:41.102Z,27.73
2019-02-08T15:28:10.455Z,34.67
2019-02-08T15:30:39.944Z,18.43
2019-02-08T15:33:09.275Z,25.33
2019-02-08T15:35:38.592Z,42.67
2019-02-08T15:38:07.939Z,28.27
2019-02-08T15:40:48.750Z,31.60
2019-02-08T15:43:19.794Z,33.83
2019-02-08T15:45:54.947Z,23.50
2019-02-08T15:48:24.386Z,24.23
2019-02-08T15:50:53.704Z,31.53
2019-02-08T15:53:23.078Z,23.83
2019-02-08T15:55:55.088Z,28.20
2019-02-08T15:58:24.435Z,19.20
2019-02-08T16:00:54.396Z,29.03
2019-02-08T16:03:23.880Z,28.03
2019-02-08T16:05:53.383Z,31.03
2019-02-08T16:08:23.184Z,40.70
2019-02-08T16:10:52.957Z,35.17
2019-02-08T16:13:22.467Z,48.27
2019-02-08T16:15:52.073Z,38.23
2019-02-08T16:18:21.562Z,30.13
2019-02-08T16:20:51.028Z,26.60
2019-02-08T16:23:20.460Z,14.63
2019-02-08T16:25:49.964Z,15.43
2019-02-08T16:28:19.378Z,31.20
2019-02-08T16:30:48.891Z,22.13
2019-02-08T16:33:18.462Z,40.80
2019-02-08T16:35:47.993Z,34.30
2019-02-08T16:38:18.769Z,57.03
2019-02-08T16:40:48.693Z,27.80
2019-02-08T16:43:17.997Z,32.13
2019-02-08T16:45:47.550Z,25.63
2019-02-08T16:48:17.323Z,25.13
2019-02-08T16:50:47.250Z,35.13
2019-02-08T16:53:16.751Z,36.57
2019-02-08T16:55:46.185Z,21.47
2019-02-08T16:58:15.595Z,24.87
2019-02-08T17:00:45.092Z,23.67
2019-02-08T17:03:14.753Z,32.40
2019-02-08T17:05:44.751Z,24.43
2019-02-08T17:08:14.076Z,36.93
2019-02-08T17:10:45.672Z,30.63
2019-02-08T17:13:15.016Z,22.27
2019-02-08T17:15:44.384Z,20.87
2019-02-08T17:18:13.752Z,26.67
2019-02-08T17:20:45.331Z,12.93
2019-02-08T17:23:14.672Z,27.00
2019-02-08T17:25:44.513Z,18.67
2019-02-08T17:28:13.864Z,21.27
2019-02-08T17:30:43.274Z,19.10
2019-02-08T17:33:12.805Z,27.90
2019-02-08T17:35:42.156Z,21.10
2019-02-08T17:38:11.509Z,24.27
2019-02-08T17:40:42.654Z,26.53
2019-02-08T17:43:11.980Z,9.60
2019-02-08T17:45:41.324Z,17.37
2019-02-08T17:48:13.433Z,13.83
2019-02-08T17:50:42.986Z,10.37
2019-02-08T17:53:12.296Z,15.87
2019-02-08T17:55:41.735Z,20.90
2019-02-08T17:58:11.042Z,20.57
2019-02-08T18:00:45.009Z,29.50
2019-02-08T18:03:14.342Z,24.63
2019-02-08T18:05:43.950Z,39.20
2019-02-08T18:08:13.646Z,38.60
2019-02-08T18:10:43.143Z,32.83
2019-02-08T18:13:12.641Z,19.30
2019-02-08T18:16:09.216Z,21.07
2019-02-08T18:18:38.609Z,25.73
2019-02-08T18:21:10.630Z,21.03
2019-02-08T18:23:40.067Z,22.37
2019-02-08T18:26:09.413Z,17.37
2019-02-08T18:28:38.907Z,14.07
2019-02-08T18:31:08.365Z,14.87
2019-02-08T18:33:38.934Z,11.77
2019-02-08T18:36:08.516Z,9.00
2019-02-08T18:38:37.849Z,18.13
2019-02-08T18:41:07.453Z,26.23
2019-02-08T18:43:36.793Z,30.87
2019-02-08T18:46:06.273Z,11.00
2019-02-08T18:48:35.649Z,16.87
2019-02-08T18:51:05.038Z,19.50
2019-02-08T18:53:34.417Z,20.47
2019-02-08T18:56:03.875Z,19.43
2019-02-08T18:58:33.443Z,25.93
2019-02-08T19:01:02.957Z,29.47
2019-02-08T19:03:32.296Z,29.00
2019-02-08T19:06:01.643Z,38.23
2019-02-08T19:08:31.048Z,26.43
2019-02-08T19:11:01.368Z,20.77
2019-02-08T19:13:30.724Z,23.17
2019-02-08T19:16:00.075Z,20.57
2019-02-08T19:18:29.542Z,32.83
2019-02-08T19:20:58.904Z,14.50
2019-02-08T19:23:28.232Z,13.40
2019-02-08T19:25:57.579Z,11.83
2019-02-08T19:28:26.940Z,15.10
2019-02-08T19:30:56.277Z,11.60
2019-02-08T19:33:25.748Z,14.07
2019-02-08T19:35:55.135Z,27.93
2019-02-08T19:38:24.515Z,29.43
2019-02-08T19:40:53.831Z,27.43
2019-02-08T19:43:23.295Z,29.57
2019-02-08T19:45:52.872Z,18.20
2019-02-08T19:48:22.200Z,22.40
2019-02-08T19:50:51.542Z,26.93
2019-02-08T19:53:20.890Z,26.07
2019-02-08T19:56:05.470Z,16.73
2019-02-08T19:58:35.032Z,19.30
2019-02-08T20:01:05.453Z,21.57
2019-02-08T20:03:35.708Z,32.13
2019-02-08T20:06:05.282Z,24.37
2019-02-08T20:08:35.685Z,25.10
2019-02-08T20:11:05.200Z,22.47
2019-02-08T20:13:34.532Z,23.10
2019-02-08T20:16:03.878Z,19.73
2019-02-08T20:18:33.197Z,17.70
2019-02-08T20:21:02.500Z,21.17
2019-02-08T20:23:31.848Z,36.67
2019-02-08T20:26:01.196Z,28.57
2019-02-08T20:28:30.538Z,16.60
2019-02-08T20:30:59.850Z,13.40
2019-02-08T20:33:29.210Z,26.97
2019-02-08T20:35:58.553Z,16.47
2019-02-08T20:38:27.936Z,19.57
2019-02-08T20:40:57.264Z,15.33
2019-02-08T20:43:26.610Z,21.07
2019-02-08T20:45:55.970Z,16.97
2019-02-08T20:48:25.300Z,26.23
2019-02-08T20:50:54.651Z,21.53
2019-02-08T20:53:24.568Z,18.20
2019-02-08T20:55:54.051Z,16.30
2019-02-08T20:58:23.402Z,20.63
2019-02-08T21:00:53.921Z,24.17
2019-02-08T21:03:25.048Z,28.53
2019-02-08T21:05:54.599Z,30.23
2019-02-08T21:08:23.931Z,27.17
2019-02-08T21:10:53.272Z,28.43
2019-02-08T21:13:22.622Z,27.50
2019-02-08T21:15:51.939Z,22.97
2019-02-08T21:18:21.258Z,23.83
2019-02-08T21:20:50.711Z,27.07
2019-02-08T21:23:20.123Z,25.70
2019-02-08T21:25:52.315Z,29.67
2019-02-08T21:28:20.530Z,34.03
2019-02-08T21:30:49.859Z,17.87
2019-02-08T21:33:19.227Z,11.03
2019-02-08T21:35:49.604Z,17.80
2019-02-08T21:38:19.003Z,14.07
2019-02-08T21:40:48.458Z,20.13
2019-02-08T21:43:17.791Z,16.50
2019-02-08T21:45:48.710Z,20.17
2019-02-08T21:48:18.051Z,32.03
2019-02-08T21:50:47.361Z,30.60
2019-02-08T21:53:16.703Z,22.37
2019-02-08T21:55:46.038Z,20.53
2019-02-08T21:58:16.415Z,22.67
2019-02-08T22:00:46.025Z,14.43
2019-02-08T22:03:15.360Z,18.77
2019-02-08T22:05:47.613Z,16.47
2019-02-08T22:08:16.974Z,36.63
2019-02-08T22:10:46.288Z,23.93
2019-02-08T22:13:15.648Z,21.53
2019-02-08T22:15:45.164Z,25.73
2019-02-08T22:18:14.487Z,37.40
2019-02-08T22:20:43.844Z,31.83
2019-02-08T22:23:13.149Z,38.00
2019-02-08T22:25:42.549Z,29.27
2019-02-08T22:28:12.445Z,35.30
2019-02-08T22:30:42.164Z,35.83
2019-02-08T22:33:11.541Z,38.40
2019-02-08T22:35:40.996Z,43.50
2019-02-08T22:38:10.349Z,37.73
2019-02-08T22:40:39.816Z,36.83
2019-02-08T22:43:09.189Z,23.43
2019-02-08T22:45:40.101Z,25.97
2019-02-08T22:48:09.766Z,31.13
2019-02-08T22:50:40.799Z,38.40
2019-02-08T22:53:10.721Z,24.57
2019-02-08T22:55:40.290Z,16.10
2019-02-08T22:58:09.985Z,25.47
2019-02-08T23:01:23.441Z,20.23
2019-02-08T23:03:53.628Z,25.90
2019-02-08T23:06:23.041Z,30.00
2019-02-08T23:08:52.402Z,24.87
2019-02-08T23:11:21.808Z,9.70
2019-02-08T23:13:51.131Z,15.10
2019-02-08T23:16:20.516Z,23.20
2019-02-08T23:18:49.835Z,30.77
2019-02-08T23:21:19.192Z,33.63
2019-02-08T23:23:48.547Z,46.13
2019-02-08T23:26:17.883Z,39.53
2019-02-08T23:28:47.235Z,39.73
2019-02-08T23:31:18.071Z,34.93
2019-02-08T23:33:47.386Z,26.93
2019-02-08T23:36:16.744Z,27.40
2019-02-08T23:38:46.116Z,31.77
2019-02-08T23:41:15.474Z,32.20
2019-02-08T23:43:44.792Z,29.83
2019-02-08T23:46:14.151Z,16.70
2019-02-08T23:48:43.482Z,25.70
2019-02-08T23:51:12.841Z,15.80
2019-02-08T23:53:42.175Z,24.77
2019-02-08T23:56:11.487Z,19.07
2019-02-08T23:58:42.903Z,34.37
